Maersk Seletar — WTAA — position and weather

sailwx.info

Track history (hours):
 
Tides and Currents Weather Stations Pressure Air Temp Water Temp Dewpoint Dewpoint Depression Visibility Wind Speed Wind Dir Waves Ship Positions

Maersk Seletar

Owner: MAERSK LINE, LIMITED, Norfolk, VA. More information available from US FCC via Universal Licensing System and Coast Guard Vessel Documentation Center.

Last reported at 2017-Oct-17 23:30 UTC. Time now 2017-Oct-17 23:53 UTC.
Position N 40°39' W 074°04'.

Length 319 m; draft 9.8 m.

Type: Cargo ship. MMSI: 369309000.

Date/timePositionNaut miles runAvg speedWind from/ knotsBaromVisibWave heightAir tempDewpointWater temp
2017-Oct-17 23:30N 40°39' W 074°04'3 6.4
2017-Oct-17 23:00N 40°39' W 074°08'2 3.3
2017-Oct-17 22:30N 40°40' W 074°08'1 1.9
2017-Oct-17 22:00N 40°41' W 074°09'0 0.0
2017-Oct-17 21:30N 40°41' W 074°09'0 0.0
2017-Oct-17 20:58N 40°41' W 074°09'0 0.0
2017-Oct-17 20:25N 40°41' W 074°09'0 0.0
2017-Oct-17 19:58N 40°41' W 074°09'0 0.0
2017-Oct-17 19:25N 40°41' W 074°09'0 0.0
2017-Oct-17 18:52N 40°41' W 074°09'0 0.0
2017-Oct-17 18:28N 40°41' W 074°09'0 0.0
2017-Oct-17 17:58N 40°41' W 074°09'0 0.0
2017-Oct-17 17:28N 40°41' W 074°09'0 0.0
2017-Oct-17 16:58N 40°41' W 074°09'0 0.0
2017-Oct-17 16:28N 40°41' W 074°09'0 0.0
2017-Oct-17 15:58N 40°41' W 074°09'0 0.0
2017-Oct-17 15:28N 40°41' W 074°09'0 0.0
2017-Oct-17 14:55N 40°41' W 074°09'0 0.0
2017-Oct-17 14:28N 40°41' W 074°09'0 0.0
2017-Oct-17 13:58N 40°41' W 074°09'0 0.0
2017-Oct-17 13:28N 40°41' W 074°09'0 0.0
2017-Oct-17 12:55N 40°41' W 074°09'0 0.0
2017-Oct-17 12:28N 40°41' W 074°09'0 0.0
2017-Oct-17 11:58N 40°41' W 074°09'0 0.0
2017-Oct-17 11:28N 40°41' W 074°09'0 0.0
2017-Oct-17 10:58N 40°41' W 074°09'0 0.0
2017-Oct-17 10:28N 40°41' W 074°09'0 0.0
2017-Oct-17 09:58N 40°41' W 074°09'0 0.0
2017-Oct-17 09:28N 40°41' W 074°09'0 0.0
2017-Oct-17 08:58N 40°41' W 074°09'0 0.0
2017-Oct-17 08:28N 40°41' W 074°09'0 0.0
2017-Oct-17 07:52N 40°41' W 074°09'0 0.0
2017-Oct-17 07:25N 40°41' W 074°09'0 0.0
2017-Oct-17 06:58N 40°41' W 074°09'0 0.0
2017-Oct-17 06:28N 40°41' W 074°09'0 0.0
2017-Oct-17 05:55N 40°41' W 074°09'0 0.0
2017-Oct-17 05:28N 40°41' W 074°09'0 0.0
2017-Oct-17 04:58N 40°41' W 074°09'0 0.0
2017-Oct-17 04:28N 40°41' W 074°09'0 0.0
2017-Oct-17 03:55N 40°41' W 074°09'0 0.0
2017-Oct-17 03:13N 40°41' W 074°09'0 0.0
2017-Oct-17 02:55N 40°41' W 074°09'0 0.0
2017-Oct-17 02:28N 40°41' W 074°09'0 0.0
2017-Oct-17 01:58N 40°41' W 074°09'0 0.0
2017-Oct-17 01:28N 40°41' W 074°09'0 0.0
2017-Oct-17 00:58N 40°41' W 074°09'0 0.0
2017-Oct-17 00:28N 40°41' W 074°09'0 0.0
2017-Oct-16 23:58N 40°41' W 074°09'0 0.0
2017-Oct-16 23:28N 40°41' W 074°09'0 0.0
2017-Oct-16 22:58N 40°41' W 074°09'0 0.0
2017-Oct-16 22:28N 40°41' W 074°09'0 0.0
2017-Oct-16 21:58N 40°41' W 074°09'0 0.0
2017-Oct-16 21:30N 40°41' W 074°09'1 2.9
2017-Oct-16 21:00N 40°40' W 074°09'2 3.1
2017-Oct-16 20:30N 40°39' W 074°07'3 5.7
2017-Oct-16 20:00N 40°38' W 074°03'5 9.2
2017-Oct-16 19:30N 40°33' W 074°02'714.5
2017-Oct-16 19:00N 40°29' W 073°54'611.9
2017-Oct-16 18:30N 40°26' W 073°47'57518.8
2017-Oct-15 12:00N 40°24' W 061°12'91019.4 220 / 201025.210.8 22.115.724.4
2017-Oct-13 13:00N 46°06' W 041°54'   350 / 221015.510.8 12.4 2.916.4
2017-Oct-10 06:21N 49°59' W 004°02'720.7
2017-Oct-10 06:00N 50°02' W 003°51'1021.2
2017-Oct-10 05:30N 50°06' W 003°36'1121.3
2017-Oct-10 05:00N 50°16' W 003°29'816.7
2017-Oct-10 04:30N 50°24' W 003°26'3 6.3
2017-Oct-10 04:01N 50°24' W 003°21'1019.1
2017-Oct-10 03:31N 50°25' W 003°06'1121.5
2017-Oct-10 03:01N 50°26' W 002°50'1121.8
2017-Oct-10 02:31N 50°26' W 002°32'2520.9
2017-Oct-10 01:18N 50°28' W 001°53'2419.0
2017-Oct-10 00:03N 50°29' W 001°15'217.7
2017-Oct-09 23:55N 50°29' W 001°12'1317.8
2017-Oct-09 23:10N 50°30' W 000°51'417.9
2017-Oct-09 22:58N 50°31' W 000°45'1717.9
2017-Oct-09 22:02N 50°32' W 000°19'018.4
2017-Oct-09 22:01N 50°32' W 000°18'918.8
2017-Oct-09 21:30N 50°32' W 000°04'1019.5
2017-Oct-09 20:58N 50°35' E 000°12'920.3
2017-Oct-09 20:31N 50°36' E 000°27'1020.8
2017-Oct-09 20:01N 50°40' E 000°42'1121.6
2017-Oct-09 19:31N 50°47' E 000°55'1121.5
2017-Oct-09 19:00N 50°54' E 001°09'1121.2
2017-Oct-09 18:30N 51°01' E 001°21'1020.3
2017-Oct-09 18:01N 51°08' E 001°33'918.7
2017-Oct-09 17:31N 51°16' E 001°39'918.3
2017-Oct-09 17:01N 51°25' E 001°43'918.4
2017-Oct-09 16:31N 51°34' E 001°45'918.6
2017-Oct-09 16:01N 51°43' E 001°44'917.3
2017-Oct-09 15:31N 51°51' E 001°39'510.4
2017-Oct-09 15:01N 51°55' E 001°34'816.4
2017-Oct-09 14:30N 51°55' E 001°20'3 5.5
2017-Oct-09 14:00N 51°58' E 001°17'0 0.1
2017-Oct-09 13:30N 51°58' E 001°17'0 0.0
2017-Oct-09 13:00N 51°58' E 001°17'0 0.0
2017-Oct-09 12:30N 51°58' E 001°17'0 0.0
2017-Oct-09 12:00N 51°58' E 001°17'0 0.0
2017-Oct-09 11:30N 51°58' E 001°17'0 0.0
2017-Oct-09 11:00N 51°58' E 001°17'0 0.0
2017-Oct-09 10:30N 51°58' E 001°17'0 0.0
2017-Oct-09 10:00N 51°58' E 001°17'0 0.0
2017-Oct-09 09:30N 51°58' E 001°17'0 0.0
2017-Oct-09 09:00N 51°58' E 001°17'0 0.0
2017-Oct-09 08:30N 51°58' E 001°17'0 0.0
2017-Oct-09 08:00N 51°58' E 001°17'0 0.0
2017-Oct-09 07:30N 51°58' E 001°17'0 0.0
2017-Oct-09 07:00N 51°58' E 001°17'0 0.0
2017-Oct-09 06:30N 51°58' E 001°17'0 0.0
2017-Oct-09 06:00N 51°58' E 001°17'0 0.0
2017-Oct-09 05:30N 51°58' E 001°17'0 0.0
2017-Oct-09 05:00N 51°58' E 001°17'0 0.0
2017-Oct-09 04:30N 51°58' E 001°17'0 0.0
2017-Oct-09 04:00N 51°58' E 001°17'0 0.0
2017-Oct-09 03:30N 51°58' E 001°17'0 0.0
2017-Oct-09 03:00N 51°58' E 001°17'0 0.0
2017-Oct-09 02:30N 51°58' E 001°17'0 0.0
2017-Oct-09 02:00N 51°58' E 001°17'0 0.0
2017-Oct-09 01:30N 51°58' E 001°17'0 0.0
2017-Oct-09 01:00N 51°58' E 001°17'0 0.0
2017-Oct-09 00:30N 51°58' E 001°17'0 0.0
2017-Oct-09 00:00N 51°58' E 001°17'0 0.0
2017-Oct-08 23:30N 51°58' E 001°17'0 0.0
2017-Oct-08 23:00N 51°58' E 001°17'0 0.0
2017-Oct-08 22:30N 51°58' E 001°17'0 0.0
2017-Oct-08 22:00N 51°58' E 001°17'0 0.0
2017-Oct-08 21:30N 51°58' E 001°17'0 0.0
2017-Oct-08 21:00N 51°58' E 001°17'0 0.0
2017-Oct-08 20:30N 51°58' E 001°17'0 0.0
2017-Oct-08 20:00N 51°58' E 001°17'0 0.0
2017-Oct-08 19:30N 51°58' E 001°17'0 0.0
2017-Oct-08 19:00N 51°58' E 001°17'0 0.0
2017-Oct-08 18:30N 51°58' E 001°17'0 0.0
2017-Oct-08 18:00N 51°58' E 001°17'0 0.0
2017-Oct-08 17:30N 51°58' E 001°17'0 0.0
2017-Oct-08 17:00N 51°58' E 001°17'0 0.1
2017-Oct-08 16:31N 51°58' E 001°17'1 1.1
2017-Oct-08 16:01N 51°57' E 001°18'1 2.5
2017-Oct-08 15:30N 51°56' E 001°19'5 9.6
2017-Oct-08 15:00N 51°56' E 001°26'5 9.8
2017-Oct-08 14:31N 51°54' E 001°34'4 8.5
2017-Oct-08 14:00N 51°52' E 001°39'4 8.1
2017-Oct-08 13:30N 51°51' E 001°46'5 9.8
2017-Oct-08 13:00N 51°46' E 001°48'612.8
2017-Oct-08 12:30N 51°40' E 001°48'510.1
2017-Oct-08 12:00N 51°35' E 001°48'2 4.1
2017-Oct-08 11:30N 51°33' E 001°48'0 0.5
2017-Oct-08 11:00N 51°33' E 001°48'2 3.0
2017-Oct-08 10:30N 51°34' E 001°49'1 1.8
2017-Oct-08 10:00N 51°35' E 001°49'1 1.8
2017-Oct-08 09:30N 51°36' E 001°48'1 3.0
2017-Oct-08 09:01N 51°36' E 001°51'4 7.3
2017-Oct-08 08:30N 51°33' E 001°53'4 7.5
2017-Oct-08 08:01N 51°29' E 001°55'510.2
2017-Oct-08 07:31N 51°26' E 002°01'5 9.8
2017-Oct-08 07:00N 51°23' E 002°08'5 9.4
2017-Oct-08 06:30N 51°21' E 002°14'4 9.0
2017-Oct-08 06:00N 51°21' E 002°22'5 9.1
2017-Oct-08 05:30N 51°23' E 002°29'4 8.8
2017-Oct-08 05:01N 51°23' E 002°36'4 8.4
2017-Oct-08 04:30N 51°24' E 002°42'4 7.8
2017-Oct-08 04:00N 51°25' E 002°48'713.4
2017-Oct-08 03:30N 51°25' E 002°58'815.5
2017-Oct-08 03:00N 51°24' E 003°11'815.3
2017-Oct-08 02:30N 51°25' E 003°23'714.4
2017-Oct-08 02:01N 51°26' E 003°35'3 6.7
2017-Oct-08 01:30N 51°26' E 003°40'612.9
2017-Oct-08 01:00N 51°22' E 003°47'612.9
2017-Oct-08 00:30N 51°23' E 003°57'4 7.3
2017-Oct-08 00:00N 51°24' E 004°02'510.2
2017-Oct-07 23:30N 51°23' E 004°10'  
Track history (hours):
 
Tides and Currents Weather Stations Pressure Air Temp Water Temp Dewpoint Dewpoint Depression Visibility Wind Speed Wind Dir Waves Ship Positions

Maersk Seletar

Owner: MAERSK LINE, LIMITED, Norfolk, VA. More information available from US FCC via Universal Licensing System and Coast Guard Vessel Documentation Center.

Last reported at 2017-Oct-17 23:30 UTC. Time now 2017-Oct-17 23:53 UTC.
Position N 40°39' W 074°04'.

Length 319 m; draft 9.8 m.

Type: Cargo ship. MMSI: 369309000.

Date/timePositionNaut miles runAvg speedWind from/ knotsBaromVisibWave heightAir tempDewpointWater temp
2017-Oct-17 23:30N 40°39' W 074°04'3 6.4
2017-Oct-17 23:00N 40°39' W 074°08'2 3.3
2017-Oct-17 22:30N 40°40' W 074°08'1 1.9
2017-Oct-17 22:00N 40°41' W 074°09'0 0.0
2017-Oct-17 21:30N 40°41' W 074°09'0 0.0
2017-Oct-17 20:58N 40°41' W 074°09'0 0.0
2017-Oct-17 20:25N 40°41' W 074°09'0 0.0
2017-Oct-17 19:58N 40°41' W 074°09'0 0.0
2017-Oct-17 19:25N 40°41' W 074°09'0 0.0
2017-Oct-17 18:52N 40°41' W 074°09'0 0.0
2017-Oct-17 18:28N 40°41' W 074°09'0 0.0
2017-Oct-17 17:58N 40°41' W 074°09'0 0.0
2017-Oct-17 17:28N 40°41' W 074°09'0 0.0
2017-Oct-17 16:58N 40°41' W 074°09'0 0.0
2017-Oct-17 16:28N 40°41' W 074°09'0 0.0
2017-Oct-17 15:58N 40°41' W 074°09'0 0.0
2017-Oct-17 15:28N 40°41' W 074°09'0 0.0
2017-Oct-17 14:55N 40°41' W 074°09'0 0.0
2017-Oct-17 14:28N 40°41' W 074°09'0 0.0
2017-Oct-17 13:58N 40°41' W 074°09'0 0.0
2017-Oct-17 13:28N 40°41' W 074°09'0 0.0
2017-Oct-17 12:55N 40°41' W 074°09'0 0.0
2017-Oct-17 12:28N 40°41' W 074°09'0 0.0
2017-Oct-17 11:58N 40°41' W 074°09'0 0.0
2017-Oct-17 11:28N 40°41' W 074°09'0 0.0
2017-Oct-17 10:58N 40°41' W 074°09'0 0.0
2017-Oct-17 10:28N 40°41' W 074°09'0 0.0
2017-Oct-17 09:58N 40°41' W 074°09'0 0.0
2017-Oct-17 09:28N 40°41' W 074°09'0 0.0
2017-Oct-17 08:58N 40°41' W 074°09'0 0.0
2017-Oct-17 08:28N 40°41' W 074°09'0 0.0
2017-Oct-17 07:52N 40°41' W 074°09'0 0.0
2017-Oct-17 07:25N 40°41' W 074°09'0 0.0
2017-Oct-17 06:58N 40°41' W 074°09'0 0.0
2017-Oct-17 06:28N 40°41' W 074°09'0 0.0
2017-Oct-17 05:55N 40°41' W 074°09'0 0.0
2017-Oct-17 05:28N 40°41' W 074°09'0 0.0
2017-Oct-17 04:58N 40°41' W 074°09'0 0.0
2017-Oct-17 04:28N 40°41' W 074°09'0 0.0
2017-Oct-17 03:55N 40°41' W 074°09'0 0.0
2017-Oct-17 03:13N 40°41' W 074°09'0 0.0
2017-Oct-17 02:55N 40°41' W 074°09'0 0.0
2017-Oct-17 02:28N 40°41' W 074°09'0 0.0
2017-Oct-17 01:58N 40°41' W 074°09'0 0.0
2017-Oct-17 01:28N 40°41' W 074°09'0 0.0
2017-Oct-17 00:58N 40°41' W 074°09'0 0.0
2017-Oct-17 00:28N 40°41' W 074°09'0 0.0
2017-Oct-16 23:58N 40°41' W 074°09'0 0.0
2017-Oct-16 23:28N 40°41' W 074°09'0 0.0
2017-Oct-16 22:58N 40°41' W 074°09'0 0.0
2017-Oct-16 22:28N 40°41' W 074°09'0 0.0
2017-Oct-16 21:58N 40°41' W 074°09'0 0.0
2017-Oct-16 21:30N 40°41' W 074°09'1 2.9
2017-Oct-16 21:00N 40°40' W 074°09'2 3.1
2017-Oct-16 20:30N 40°39' W 074°07'3 5.7
2017-Oct-16 20:00N 40°38' W 074°03'5 9.2
2017-Oct-16 19:30N 40°33' W 074°02'714.5
2017-Oct-16 19:00N 40°29' W 073°54'611.9
2017-Oct-16 18:30N 40°26' W 073°47'57518.8
2017-Oct-15 12:00N 40°24' W 061°12'91019.4 220 / 201025.210.8 22.115.724.4
2017-Oct-13 13:00N 46°06' W 041°54'   350 / 221015.510.8 12.4 2.916.4
2017-Oct-10 06:21N 49°59' W 004°02'720.7
2017-Oct-10 06:00N 50°02' W 003°51'1021.2
2017-Oct-10 05:30N 50°06' W 003°36'1121.3
2017-Oct-10 05:00N 50°16' W 003°29'816.7
2017-Oct-10 04:30N 50°24' W 003°26'3 6.3
2017-Oct-10 04:01N 50°24' W 003°21'1019.1
2017-Oct-10 03:31N 50°25' W 003°06'1121.5
2017-Oct-10 03:01N 50°26' W 002°50'1121.8
2017-Oct-10 02:31N 50°26' W 002°32'2520.9
2017-Oct-10 01:18N 50°28' W 001°53'2419.0
2017-Oct-10 00:03N 50°29' W 001°15'217.7
2017-Oct-09 23:55N 50°29' W 001°12'1317.8
2017-Oct-09 23:10N 50°30' W 000°51'417.9
2017-Oct-09 22:58N 50°31' W 000°45'1717.9
2017-Oct-09 22:02N 50°32' W 000°19'018.4
2017-Oct-09 22:01N 50°32' W 000°18'918.8
2017-Oct-09 21:30N 50°32' W 000°04'1019.5
2017-Oct-09 20:58N 50°35' E 000°12'920.3
2017-Oct-09 20:31N 50°36' E 000°27'1020.8
2017-Oct-09 20:01N 50°40' E 000°42'1121.6
2017-Oct-09 19:31N 50°47' E 000°55'1121.5
2017-Oct-09 19:00N 50°54' E 001°09'1121.2
2017-Oct-09 18:30N 51°01' E 001°21'1020.3
2017-Oct-09 18:01N 51°08' E 001°33'918.7
2017-Oct-09 17:31N 51°16' E 001°39'918.3
2017-Oct-09 17:01N 51°25' E 001°43'918.4
2017-Oct-09 16:31N 51°34' E 001°45'918.6
2017-Oct-09 16:01N 51°43' E 001°44'917.3
2017-Oct-09 15:31N 51°51' E 001°39'510.4
2017-Oct-09 15:01N 51°55' E 001°34'816.4
2017-Oct-09 14:30N 51°55' E 001°20'3 5.5
2017-Oct-09 14:00N 51°58' E 001°17'0 0.1
2017-Oct-09 13:30N 51°58' E 001°17'0 0.0
2017-Oct-09 13:00N 51°58' E 001°17'0 0.0
2017-Oct-09 12:30N 51°58' E 001°17'0 0.0
2017-Oct-09 12:00N 51°58' E 001°17'0 0.0
2017-Oct-09 11:30N 51°58' E 001°17'0 0.0
2017-Oct-09 11:00N 51°58' E 001°17'0 0.0
2017-Oct-09 10:30N 51°58' E 001°17'0 0.0
2017-Oct-09 10:00N 51°58' E 001°17'0 0.0
2017-Oct-09 09:30N 51°58' E 001°17'0 0.0
2017-Oct-09 09:00N 51°58' E 001°17'0 0.0
2017-Oct-09 08:30N 51°58' E 001°17'0 0.0
2017-Oct-09 08:00N 51°58' E 001°17'0 0.0
2017-Oct-09 07:30N 51°58' E 001°17'0 0.0
2017-Oct-09 07:00N 51°58' E 001°17'0 0.0
2017-Oct-09 06:30N 51°58' E 001°17'0 0.0
2017-Oct-09 06:00N 51°58' E 001°17'0 0.0
2017-Oct-09 05:30N 51°58' E 001°17'0 0.0
2017-Oct-09 05:00N 51°58' E 001°17'0 0.0
2017-Oct-09 04:30N 51°58' E 001°17'0 0.0
2017-Oct-09 04:00N 51°58' E 001°17'0 0.0
2017-Oct-09 03:30N 51°58' E 001°17'0 0.0
2017-Oct-09 03:00N 51°58' E 001°17'0 0.0
2017-Oct-09 02:30N 51°58' E 001°17'0 0.0
2017-Oct-09 02:00N 51°58' E 001°17'0 0.0
2017-Oct-09 01:30N 51°58' E 001°17'0 0.0
2017-Oct-09 01:00N 51°58' E 001°17'0 0.0
2017-Oct-09 00:30N 51°58' E 001°17'0 0.0
2017-Oct-09 00:00N 51°58' E 001°17'0 0.0
2017-Oct-08 23:30N 51°58' E 001°17'0 0.0
2017-Oct-08 23:00N 51°58' E 001°17'0 0.0
2017-Oct-08 22:30N 51°58' E 001°17'0 0.0
2017-Oct-08 22:00N 51°58' E 001°17'0 0.0
2017-Oct-08 21:30N 51°58' E 001°17'0 0.0
2017-Oct-08 21:00N 51°58' E 001°17'0 0.0
2017-Oct-08 20:30N 51°58' E 001°17'0 0.0
2017-Oct-08 20:00N 51°58' E 001°17'0 0.0
2017-Oct-08 19:30N 51°58' E 001°17'0 0.0
2017-Oct-08 19:00N 51°58' E 001°17'0 0.0
2017-Oct-08 18:30N 51°58' E 001°17'0 0.0
2017-Oct-08 18:00N 51°58' E 001°17'0 0.0
2017-Oct-08 17:30N 51°58' E 001°17'0 0.0
2017-Oct-08 17:00N 51°58' E 001°17'0 0.1
2017-Oct-08 16:31N 51°58' E 001°17'1 1.1
2017-Oct-08 16:01N 51°57' E 001°18'1 2.5
2017-Oct-08 15:30N 51°56' E 001°19'5 9.6
2017-Oct-08 15:00N 51°56' E 001°26'5 9.8
2017-Oct-08 14:31N 51°54' E 001°34'4 8.5
2017-Oct-08 14:00N 51°52' E 001°39'4 8.1
2017-Oct-08 13:30N 51°51' E 001°46'5 9.8
2017-Oct-08 13:00N 51°46' E 001°48'612.8
2017-Oct-08 12:30N 51°40' E 001°48'510.1
2017-Oct-08 12:00N 51°35' E 001°48'2 4.1
2017-Oct-08 11:30N 51°33' E 001°48'0 0.5
2017-Oct-08 11:00N 51°33' E 001°48'2 3.0
2017-Oct-08 10:30N 51°34' E 001°49'1 1.8
2017-Oct-08 10:00N 51°35' E 001°49'1 1.8
2017-Oct-08 09:30N 51°36' E 001°48'1 3.0
2017-Oct-08 09:01N 51°36' E 001°51'4 7.3
2017-Oct-08 08:30N 51°33' E 001°53'4 7.5
2017-Oct-08 08:01N 51°29' E 001°55'510.2
2017-Oct-08 07:31N 51°26' E 002°01'5 9.8
2017-Oct-08 07:00N 51°23' E 002°08'5 9.4
2017-Oct-08 06:30N 51°21' E 002°14'4 9.0
2017-Oct-08 06:00N 51°21' E 002°22'5 9.1
2017-Oct-08 05:30N 51°23' E 002°29'4 8.8
2017-Oct-08 05:01N 51°23' E 002°36'4 8.4
2017-Oct-08 04:30N 51°24' E 002°42'4 7.8
2017-Oct-08 04:00N 51°25' E 002°48'713.4
2017-Oct-08 03:30N 51°25' E 002°58'815.5
2017-Oct-08 03:00N 51°24' E 003°11'815.3
2017-Oct-08 02:30N 51°25' E 003°23'714.4
2017-Oct-08 02:01N 51°26' E 003°35'3 6.7
2017-Oct-08 01:30N 51°26' E 003°40'612.9
2017-Oct-08 01:00N 51°22' E 003°47'612.9
2017-Oct-08 00:30N 51°23' E 003°57'4 7.3
2017-Oct-08 00:00N 51°24' E 004°02'510.2
2017-Oct-07 23:30N 51°23' E 004°10'  

Dump ship's entire track history